• Join FlightAware (Why Join?)
  • Login
  • US Flag 
12:26AM EDT


 

Airport Tracker/Info


-or-


 

Live Flight TrackerFlight Track Log ✈ N719JB ✈ 21-Jun-2013 ✈ KORF - KISP

Flight Track Log - Related Links

Times and Time Zones

All times are in EDT time to prevent confusion due to time zone crossing. See the N719JB flight status page for this flight to view local times or setup timezone preferences in your user account.

Time Position Orientation Groundspeed Altitude Reporting Facility
EDT Latitude Longitude Course Direction KTS MPH feet Rate Location/Type
02:42PM 36.9558 -76.1481 36° Northeast 269 310 3,800  Level Washington Center
02:43PM 37.0000 -76.0808 51° Northeast 273 314 7,500 1,440 Climbing Washington Center
02:45PM 37.0799 -75.8584 54° Northeast  Level FlightAware Approximate
02:46PM 37.1300 -75.8289 54° Northeast 290 334 9,600  Level Washington Center
02:47PM 37.1761 -75.7378 58° Northeast 290 334 13,800 4,200 Climbing Washington Center
02:48PM 37.2636 -75.6989 19° North 306 352 18,100 4,320 Climbing Washington Center
02:49PM 37.3556 -75.6886 North 306 352 22,300 4,260 Climbing Washington Center
02:50PM 37.4431 -75.6678 11° North 311 358 26,500 3,060 Climbing Washington Center
02:51PM 37.5308 -75.6233 22° Northeast 322 371 28,500 1,200 Climbing Washington Center
02:52PM 37.6414 -75.5736 20° North 364 419 29,000 240 Climbing Washington Center
02:53PM 37.7603 -75.5183 20° North 419 482 29,000  Level Washington Center
02:54PM 37.8831 -75.4603 20° North 447 514 29,000  Level Washington Center
02:55PM 38.0042 -75.3994 22° Northeast 459 528 29,000  Level Washington Center
02:56PM 38.1250 -75.3411 21° North 459 528 29,000  Level Washington Center
02:57PM 38.2458 -75.2903 18° North 459 528 29,000  Level Washington Center
02:58PM 38.3622 -75.2289 22° Northeast 464 534 29,000  Level Washington Center
02:59PM 38.4706 -75.1436 32° Northeast 457 526 29,000  Level Washington Center
03:00PM 38.5764 -75.0447 36° Northeast 457 526 29,000  Level Washington Center
03:01PM 38.6781 -74.9428 38° Northeast 462 532 29,000  Level Washington Center
03:02PM 38.7817 -74.8514 35° Northeast 462 532 29,000  Level Washington Center
03:03PM 38.8831 -74.7517 37° Northeast 457 526 29,000  Level Washington Center
03:04PM 38.9844 -74.6542 37° Northeast 457 526 29,000  Level Washington Center
03:05PM 39.0881 -74.5594 35° Northeast 457 526 29,000 -1,260 Level Washington Center
03:08PM 39.2475 -74.5144 30° Northeast  Level FlightAware Approximate
03:08PM 39.4314 -74.2275 30° Northeast 451 519 23,700  Level New York Center
03:09PM 39.5344 -74.1275 37° Northeast 456 525 21,100 -1,800 Descending New York Center
03:10PM 39.6231 -74.0103 46° Northeast 456 525 20,200 -1,320 Descending New York Center
03:11PM 39.7117 -73.8931 45° Northeast 451 519 18,600 -1,200 Descending New York Center
03:12PM 39.7808 -73.8017 45° Northeast 446 513 17,800 -780 Descending New York Center
03:13PM 39.8842 -73.6681 45° Northeast 436 502 17,100 -360 Descending New York Center
03:14PM 39.9683 -73.5553 46° Northeast 430 495 17,100  Level New York Center
03:15PM 40.0522 -73.4419 46° Northeast 430 495 17,100 -840 Level New York Center
03:16PM 40.1317 -73.3364 45° Northeast 422 486 15,500 -2,100 Descending New York Center
03:18PM 40.3061 -73.0958 46° Northeast 399 459 10,300 -1,920 Descending Boston Center
03:20PM 40.4167 -72.9333 48° Northeast 344 396 8,200 -1,260 Descending New York TRACON
03:21PM 40.4833 -72.8500 44° Northeast 315 362 6,900 -1,500 Descending New York TRACON
03:22PM 40.5667 -72.8667 351° North 267 307 5,200 -1,560 Descending New York TRACON
03:23PM 40.6333 -72.8833 349° North 260 299 4,000 -600 Descending New York TRACON
03:24PM 40.6833 -72.9000 346° North 215 247 4,000 -600 Level New York TRACON
03:25PM 40.7500 -72.9167 349° North 209 241 2,900 -1,020 Descending New York TRACON
03:26PM 40.8000 -72.9333 346° North 197 227 2,000 -600 Descending New York TRACON
03:27PM 40.8167 -72.9833 294° West 171 197 1,800 -360 Descending New York TRACON
03:28PM 40.8167 -73.0500 270° West 150 173 1,300 -540 Descending New York TRACON